首页
METAR-TAF:

METAR-TAF

机场 :

Meacham, 俄勒冈州, 美国

纬度: 45-30-41N, 经度: 118-25-29W, 海拔: 1135米

当前天气观测

该预报发布于31分钟前的10:56 UTC
静风
温度 1°C
湿度 86%
气压 1016 hPa
能見度: 16.1公里
天空无云

METAR: KMEH 191056Z AUTO 00000KT 10SM CLR 01/M01 A3001 RMK AO2 SLP164 T00061011

时间: 04:27 (11:27 UTC)


TAF: 丢失

超过4000个机场的气象观测和天气预报(METAR&TAF报告)。

可查询的气象台以黄色和红色小点在地图上表示。

将鼠标移到小点上方,可查看气象台名称。

然后点击查看天气观测和预报。

如需切换地图:点击带黑十字的绿色按钮放大地图;点击带横线的绿色按钮缩小地图;或者点击绿色箭头查看邻近地区的地图。


METAR-TAF: